Time;durP1;ratioP1;P1;durP2;ratioP2;P2;SDS_P1;SDS_P2;PMS_P1;PMS_P2;Temp;Humidity;BMP_temperature;BMP_pressure;BME280_temperature;BME280_humidity;BME280_pressure;Samples;Min_cycle;Max_cycle;Signal;HPM_P1;HPM_P2
2021/10/24 00:01:12;;;;;;;4.30;2.20;;;;;;;;;;4910153;29;20429;-87
2021/10/24 00:03:39;;;;;;;2.88;2.20;;;;;;;;;;4911792;29;20927;-87
2021/10/24 00:06:06;;;;;;;4.15;2.40;;;;;;;;;;4907238;29;20431;-87
2021/10/24 00:08:34;;;;;;;3.00;2.20;;;;;;;;;;4906083;29;20415;-88
2021/10/24 00:11:01;;;;;;;4.60;2.22;;;;;;;;;;4910454;29;20415;-88
2021/10/24 00:13:28;;;;;;;2.83;2.13;;;;;;;;;;4910006;29;20435;-87
2021/10/24 00:15:56;;;;;;;2.73;2.10;;;;;;;;;;4906971;29;20471;-87
2021/10/24 00:18:23;;;;;;;3.50;1.92;;;;;;;;;;4909129;29;20415;-86
2021/10/24 00:20:50;;;;;;;3.13;1.98;;;;;;;;;;4905455;29;20422;-85
2021/10/24 00:23:17;;;;;;;2.28;2.08;;;;;;;;;;4903695;29;20434;-86
2021/10/24 00:25:46;;;;;;;3.05;2.20;;;;;;;;;;4910140;29;20430;-87
2021/10/24 00:28:12;;;;;;;2.50;2.00;;;;;;;;;;4909963;29;20501;-88
2021/10/24 00:30:39;;;;;;;2.15;1.95;;;;;;;;;;4909834;29;20432;-86
2021/10/24 00:33:07;;;;;;;2.58;1.80;;;;;;;;;;4900776;29;20420;-87
2021/10/24 00:35:34;;;;;;;3.30;1.80;;;;;;;;;;4905435;29;20419;-85
2021/10/24 00:38:01;;;;;;;4.45;2.13;;;;;;;;;;4925677;29;20427;-87
2021/10/24 00:40:28;;;;;;;3.15;2.03;;;;;;;;;;4941166;29;20432;-86
2021/10/24 00:42:56;;;;;;;2.75;2.08;;;;;;;;;;4966938;23;20430;-87
2021/10/24 00:45:26;;;;;;;3.17;1.95;;;;;;;;;;4952209;28;20412;-87
2021/10/24 00:47:53;;;;;;;3.50;2.25;;;;;;;;;;4953502;28;20421;-88
2021/10/24 00:50:21;;;;;;;2.95;2.00;;;;;;;;;;4949008;29;20495;-88
2021/10/24 00:52:48;;;;;;;3.88;2.38;;;;;;;;;;4958998;28;20414;-88
2021/10/24 00:55:15;;;;;;;2.80;1.95;;;;;;;;;;4960785;28;20477;-87
2021/10/24 00:57:43;;;;;;;4.50;2.20;;;;;;;;;;4948974;28;20412;-88
2021/10/24 01:00:13;;;;;;;3.35;2.22;;;;;;;;;;4955951;28;20420;-88
2021/10/24 01:02:41;;;;;;;3.08;2.25;;;;;;;;;;4955951;28;20781;-88
2021/10/24 01:05:10;;;;;;;3.15;2.55;;;;;;;;;;4955289;28;20404;-88
2021/10/24 01:07:40;;;;;;;2.97;2.40;;;;;;;;;;4960946;28;20884;-89
2021/10/24 01:10:14;;;;;;;3.10;2.50;;;;;;;;;;4956141;28;20865;-88
2021/10/24 01:12:42;;;;;;;3.15;2.60;;;;;;;;;;4956842;28;20419;-88
2021/10/24 01:15:09;;;;;;;3.83;2.50;;;;;;;;;;4954065;28;20420;-88
2021/10/24 01:17:37;;;;;;;3.33;3.00;;;;;;;;;;4953042;28;20781;-88
2021/10/24 01:20:06;;;;;;;3.72;2.40;;;;;;;;;;4956468;28;20412;-88
2021/10/24 01:22:38;;;;;;;3.10;2.58;;;;;;;;;;4953788;28;20419;-88
2021/10/24 01:25:07;;;;;;;5.03;2.40;;;;;;;;;;4951201;28;20854;-88
2021/10/24 01:27:35;;;;;;;5.05;2.40;;;;;;;;;;4956858;28;20442;-88
2021/10/24 01:30:02;;;;;;;3.67;2.20;;;;;;;;;;4948785;28;20439;-88
2021/10/24 01:32:30;;;;;;;3.30;2.20;;;;;;;;;;4958401;28;20412;-88
2021/10/24 01:34:58;;;;;;;3.05;1.90;;;;;;;;;;4948510;28;20931;-88
2021/10/24 01:37:31;;;;;;;2.75;1.98;;;;;;;;;;4948104;28;20423;-88
2021/10/24 01:40:00;;;;;;;2.30;1.90;;;;;;;;;;4952408;28;20458;-87
2021/10/24 01:42:27;;;;;;;2.72;1.90;;;;;;;;;;4951846;28;20418;-88
2021/10/24 01:44:54;;;;;;;2.03;1.80;;;;;;;;;;4954144;28;20970;-89
2021/10/24 01:47:21;;;;;;;3.07;1.90;;;;;;;;;;4952297;28;20431;-88
2021/10/24 01:49:48;;;;;;;3.05;1.80;;;;;;;;;;4956904;28;20437;-88
2021/10/24 01:52:16;;;;;;;3.13;1.83;;;;;;;;;;4955645;28;20424;-87
2021/10/24 01:54:44;;;;;;;4.05;2.00;;;;;;;;;;4960484;28;20513;-88
2021/10/24 01:57:13;;;;;;;2.30;1.60;;;;;;;;;;4953314;28;20520;-88
2021/10/24 01:59:40;;;;;;;4.45;2.03;;;;;;;;;;4951802;28;20424;-88
2021/10/24 02:02:08;;;;;;;2.42;1.80;;;;;;;;;;4951925;28;20420;-88
2021/10/24 02:04:34;;;;;;;2.03;1.50;;;;;;;;;;4959473;28;20424;-88
2021/10/24 02:07:01;;;;;;;2.40;1.73;;;;;;;;;;4959030;28;20429;-89
2021/10/24 02:09:29;;;;;;;3.42;1.73;;;;;;;;;;4952700;28;20409;-89
2021/10/24 02:11:55;;;;;;;3.00;1.80;;;;;;;;;;4947984;29;20776;-88
2021/10/24 02:14:24;;;;;;;2.90;1.75;;;;;;;;;;4947416;28;20828;-88
2021/10/24 02:16:51;;;;;;;3.33;2.00;;;;;;;;;;4948035;28;20654;-88
2021/10/24 02:19:18;;;;;;;2.65;1.90;;;;;;;;;;4947068;28;20412;-88
2021/10/24 02:21:45;;;;;;;2.75;1.88;;;;;;;;;;4947216;29;20483;-88
2021/10/24 02:24:11;;;;;;;2.45;1.92;;;;;;;;;;4947593;28;20424;-88
2021/10/24 02:26:38;;;;;;;3.20;2.00;;;;;;;;;;4937189;28;20420;-87
2021/10/24 02:29:05;;;;;;;2.45;2.20;;;;;;;;;;4935995;28;20404;-88
2021/10/24 02:31:34;;;;;;;3.53;2.10;;;;;;;;;;4946220;29;20571;-88
2021/10/24 02:34:01;;;;;;;3.38;2.38;;;;;;;;;;4946965;28;20416;-88
2021/10/24 02:36:27;;;;;;;2.67;1.80;;;;;;;;;;4947145;29;20416;-88
2021/10/24 02:38:54;;;;;;;3.42;2.33;;;;;;;;;;4946900;29;20439;-88
2021/10/24 02:41:21;;;;;;;2.92;2.28;;;;;;;;;;4947977;28;20495;-89
2021/10/24 02:43:48;;;;;;;3.80;2.30;;;;;;;;;;4950983;29;20456;-89
2021/10/24 02:46:16;;;;;;;2.70;2.10;;;;;;;;;;4950643;29;20419;-88
2021/10/24 02:48:44;;;;;;;3.28;2.13;;;;;;;;;;4951451;28;20954;-88
2021/10/24 02:51:11;;;;;;;4.68;2.30;;;;;;;;;;4950853;29;20408;-88
2021/10/24 02:53:38;;;;;;;3.77;2.27;;;;;;;;;;4950497;29;20470;-88
2021/10/24 02:56:05;;;;;;;4.20;2.13;;;;;;;;;;4950614;29;20431;-88
2021/10/24 02:58:32;;;;;;;3.17;2.30;;;;;;;;;;4950097;29;20416;-88
2021/10/24 03:00:59;;;;;;;2.75;2.30;;;;;;;;;;4950329;28;20416;-88
2021/10/24 03:03:26;;;;;;;3.55;2.20;;;;;;;;;;4950658;29;20416;-89
2021/10/24 03:05:54;;;;;;;3.08;2.20;;;;;;;;;;4937189;29;20423;-89
2021/10/24 03:08:21;;;;;;;2.67;2.42;;;;;;;;;;4950215;29;20428;-88
2021/10/24 03:10:48;;;;;;;4.50;2.30;;;;;;;;;;4949216;28;20494;-88
2021/10/24 03:13:16;;;;;;;4.53;2.10;;;;;;;;;;4950173;29;20423;-88
2021/10/24 03:15:42;;;;;;;3.78;2.20;;;;;;;;;;4949740;28;20428;-88
2021/10/24 03:18:09;;;;;;;4.05;1.95;;;;;;;;;;4949269;28;20412;-88
2021/10/24 03:20:36;;;;;;;3.80;1.80;;;;;;;;;;4950302;28;20415;-88
2021/10/24 03:23:05;;;;;;;2.10;1.80;;;;;;;;;;4949984;28;20796;-89
2021/10/24 03:25:32;;;;;;;1.67;1.50;;;;;;;;;;4950141;29;20408;-90
2021/10/24 03:27:59;;;;;;;2.67;1.40;;;;;;;;;;4948659;28;20424;-89
2021/10/24 03:30:26;;;;;;;2.78;1.42;;;;;;;;;;4950150;29;20824;-88
2021/10/24 03:32:53;;;;;;;3.75;1.52;;;;;;;;;;4950318;28;20870;-88
2021/10/24 03:35:20;;;;;;;2.67;1.50;;;;;;;;;;4949975;29;20400;-89
2021/10/24 03:37:47;;;;;;;2.20;1.90;;;;;;;;;;4950124;29;20467;-89
2021/10/24 03:40:16;;;;;;;3.50;1.70;;;;;;;;;;4948034;28;20403;-89
2021/10/24 03:42:43;;;;;;;2.60;1.90;;;;;;;;;;4948781;29;20412;-89
2021/10/24 03:45:10;;;;;;;2.40;1.90;;;;;;;;;;4949428;28;20416;-88
2021/10/24 03:47:38;;;;;;;3.15;1.67;;;;;;;;;;4949903;29;20439;-88
2021/10/24 03:50:06;;;;;;;4.47;1.60;;;;;;;;;;4948237;28;20461;-89
2021/10/24 03:52:33;;;;;;;2.75;1.58;;;;;;;;;;4948875;28;20416;-89
2021/10/24 03:55:00;;;;;;;2.25;1.55;;;;;;;;;;4949238;28;21159;-89
2021/10/24 03:57:29;;;;;;;3.00;1.77;;;;;;;;;;4948638;29;20420;-89
2021/10/24 03:59:55;;;;;;;1.80;1.58;;;;;;;;;;4949181;29;20482;-89
2021/10/24 04:02:22;;;;;;;3.60;1.77;;;;;;;;;;4949483;29;20486;-89
2021/10/24 04:04:49;;;;;;;2.08;1.52;;;;;;;;;;4938059;29;20499;-89
2021/10/24 04:07:16;;;;;;;2.17;1.42;;;;;;;;;;4949020;28;20762;-89
2021/10/24 04:09:43;;;;;;;3.22;1.45;;;;;;;;;;4958156;28;20413;-89
2021/10/24 04:12:11;;;;;;;3.72;1.30;;;;;;;;;;4956556;28;20423;-89
2021/10/24 04:14:41;;;;;;;2.65;1.50;;;;;;;;;;4955577;28;20408;-89
2021/10/24 04:17:08;;;;;;;2.47;1.30;;;;;;;;;;4957132;28;20974;-89
2021/10/24 04:19:35;;;;;;;2.42;1.50;;;;;;;;;;4949932;28;20423;-89
2021/10/24 04:22:02;;;;;;;3.03;1.55;;;;;;;;;;4959576;28;20426;-89
2021/10/24 04:24:29;;;;;;;2.60;1.40;;;;;;;;;;4952612;28;20416;-89
2021/10/24 04:26:56;;;;;;;1.97;1.60;;;;;;;;;;4954674;28;20455;-89
2021/10/24 04:29:23;;;;;;;1.83;1.30;;;;;;;;;;4956211;28;20408;-89
2021/10/24 04:31:51;;;;;;;2.33;1.45;;;;;;;;;;4953601;28;21083;-89
2021/10/24 04:34:18;;;;;;;3.45;1.70;;;;;;;;;;4955957;28;20406;-89
2021/10/24 04:36:45;;;;;;;1.63;1.40;;;;;;;;;;4953432;28;20408;-89
2021/10/24 04:39:12;;;;;;;2.78;1.52;;;;;;;;;;4958048;28;20788;-89
2021/10/24 04:41:39;;;;;;;1.85;1.35;;;;;;;;;;4956804;28;20406;-89
2021/10/24 04:44:06;;;;;;;2.40;1.33;;;;;;;;;;4957583;28;20450;-89
2021/10/24 04:46:33;;;;;;;3.08;1.40;;;;;;;;;;4954329;28;20418;-89
2021/10/24 04:49:01;;;;;;;1.98;1.40;;;;;;;;;;4955554;28;20586;-89
2021/10/24 04:51:28;;;;;;;2.00;1.20;;;;;;;;;;4958753;28;20418;-89
2021/10/24 04:53:55;;;;;;;2.65;1.30;;;;;;;;;;4958256;28;20424;-89
2021/10/24 04:56:22;;;;;;;2.10;1.60;;;;;;;;;;4957470;28;21013;-89
2021/10/24 04:58:49;;;;;;;2.85;1.40;;;;;;;;;;4955709;28;20423;-89
2021/10/24 05:01:16;;;;;;;2.80;1.52;;;;;;;;;;4953914;28;20421;-89
2021/10/24 05:03:43;;;;;;;2.88;1.60;;;;;;;;;;4950047;28;20406;-89
2021/10/24 05:06:11;;;;;;;2.55;1.35;;;;;;;;;;4954828;28;21089;-89
2021/10/24 05:08:38;;;;;;;3.90;1.52;;;;;;;;;;4958029;28;20457;-90
2021/10/24 05:11:05;;;;;;;3.83;1.35;;;;;;;;;;4947768;28;20691;-89
2021/10/24 05:13:32;;;;;;;2.37;1.60;;;;;;;;;;4954034;28;20497;-89
2021/10/24 05:15:59;;;;;;;5.57;2.08;;;;;;;;;;4952765;28;20428;-89
2021/10/24 05:18:25;;;;;;;2.58;1.73;;;;;;;;;;4958084;28;20420;-89
2021/10/24 05:20:52;;;;;;;3.40;2.05;;;;;;;;;;4956883;28;20396;-89
2021/10/24 05:23:21;;;;;;;3.22;2.00;;;;;;;;;;4954761;28;20677;-89
2021/10/24 05:25:48;;;;;;;2.13;1.60;;;;;;;;;;4955864;28;20427;-89
2021/10/24 05:28:14;;;;;;;2.95;1.75;;;;;;;;;;4957202;28;20424;-89
2021/10/24 05:30:41;;;;;;;2.13;1.48;;;;;;;;;;4952921;28;20482;-88
2021/10/24 05:33:08;;;;;;;2.40;1.77;;;;;;;;;;4958629;28;20408;-88
2021/10/24 05:35:35;;;;;;;1.73;1.33;;;;;;;;;;4947044;28;20470;-88
2021/10/24 05:38:02;;;;;;;3.00;1.90;;;;;;;;;;4953274;28;20763;-88
2021/10/24 05:40:31;;;;;;;4.55;1.77;;;;;;;;;;4957559;28;20769;-88
2021/10/24 05:42:59;;;;;;;2.95;1.70;;;;;;;;;;4955407;28;20420;-89
2021/10/24 05:45:26;;;;;;;2.65;1.65;;;;;;;;;;4953095;28;20896;-88
2021/10/24 05:47:52;;;;;;;3.38;2.33;;;;;;;;;;4954808;28;20434;-89
2021/10/24 05:50:19;;;;;;;3.45;2.35;;;;;;;;;;4954972;28;20448;-88
2021/10/24 05:52:46;;;;;;;3.53;2.30;;;;;;;;;;4954375;28;20405;-88
2021/10/24 05:55:13;;;;;;;3.47;2.30;;;;;;;;;;4955182;28;20422;-88
2021/10/24 05:57:41;;;;;;;3.35;2.35;;;;;;;;;;4955915;28;20425;-88
2021/10/24 06:00:09;;;;;;;5.13;2.70;;;;;;;;;;4946969;28;20952;-88
2021/10/24 06:02:36;;;;;;;3.92;2.53;;;;;;;;;;4947308;28;20416;-88
2021/10/24 06:05:03;;;;;;;4.63;2.40;;;;;;;;;;4954022;28;20888;-88
2021/10/24 06:07:32;;;;;;;4.97;2.45;;;;;;;;;;4954643;28;20429;-89
2021/10/24 06:10:02;;;;;;;3.17;2.17;;;;;;;;;;4956635;28;20408;-88
2021/10/24 06:12:42;;;;;;;4.57;2.38;;;;;;;;;;4954370;28;20415;-89
2021/10/24 06:15:13;;;;;;;5.10;2.42;;;;;;;;;;4953125;28;20418;-89
2021/10/24 06:17:40;;;;;;;5.93;2.40;;;;;;;;;;4951814;28;20410;-89
2021/10/24 06:20:08;;;;;;;4.10;2.30;;;;;;;;;;4957946;28;21008;-89
2021/10/24 06:22:36;;;;;;;3.33;2.22;;;;;;;;;;4964182;28;20417;-89
2021/10/24 06:25:04;;;;;;;4.27;2.30;;;;;;;;;;4960281;28;20887;-89
2021/10/24 06:27:30;;;;;;;3.72;2.30;;;;;;;;;;4958534;28;20426;-89
2021/10/24 06:29:57;;;;;;;4.60;2.50;;;;;;;;;;4954427;28;20775;-89
2021/10/24 06:32:26;;;;;;;4.57;2.47;;;;;;;;;;4960728;28;20677;-89
2021/10/24 06:34:52;;;;;;;3.95;2.22;;;;;;;;;;4960524;28;20426;-88
2021/10/24 06:37:20;;;;;;;2.80;2.13;;;;;;;;;;4958183;28;20490;-88
2021/10/24 06:39:47;;;;;;;3.60;1.90;;;;;;;;;;4956534;28;20447;-89
2021/10/24 06:42:14;;;;;;;3.93;1.93;;;;;;;;;;4959883;28;20778;-88
2021/10/24 06:44:41;;;;;;;2.53;1.90;;;;;;;;;;4953450;28;20416;-88
2021/10/24 06:47:08;;;;;;;2.40;2.00;;;;;;;;;;4960139;28;20406;-88
2021/10/24 06:49:36;;;;;;;3.67;1.95;;;;;;;;;;4960107;28;20906;-88
2021/10/24 06:52:05;;;;;;;2.63;1.83;;;;;;;;;;4960154;28;20410;-88
2021/10/24 06:54:33;;;;;;;3.23;1.80;;;;;;;;;;4958085;28;20919;-88
2021/10/24 06:57:00;;;;;;;3.60;1.60;;;;;;;;;;4953975;28;20428;-88
2021/10/24 06:59:27;;;;;;;3.42;1.65;;;;;;;;;;4950648;28;20412;-89
2021/10/24 07:01:54;;;;;;;2.67;1.80;;;;;;;;;;4957110;28;20420;-89
2021/10/24 07:04:21;;;;;;;2.50;1.75;;;;;;;;;;4951615;28;20814;-87
2021/10/24 07:06:49;;;;;;;3.90;2.08;;;;;;;;;;4957072;28;20427;-85
2021/10/24 07:09:16;;;;;;;4.70;1.80;;;;;;;;;;4959915;28;20752;-86
2021/10/24 07:11:43;;;;;;;3.03;1.70;;;;;;;;;;4953149;28;20792;-85
2021/10/24 07:14:10;;;;;;;3.13;1.70;;;;;;;;;;4955888;28;20412;-86
2021/10/24 07:16:37;;;;;;;3.60;2.17;;;;;;;;;;4953368;28;20418;-87
2021/10/24 07:19:03;;;;;;;2.78;1.90;;;;;;;;;;4956100;28;20471;-87
2021/10/24 07:21:30;;;;;;;2.80;1.80;;;;;;;;;;4955694;28;20410;-87
2021/10/24 07:23:58;;;;;;;2.70;1.60;;;;;;;;;;4961715;28;20488;-87
2021/10/24 07:26:25;;;;;;;3.83;2.08;;;;;;;;;;4958743;28;20412;-87
2021/10/24 07:28:52;;;;;;;2.22;1.67;;;;;;;;;;4959617;28;20429;-87
2021/10/24 07:31:19;;;;;;;3.60;1.88;;;;;;;;;;4957218;28;20410;-86
2021/10/24 07:33:47;;;;;;;4.30;1.90;;;;;;;;;;4955977;28;20805;-87
2021/10/24 07:36:14;;;;;;;3.47;2.10;;;;;;;;;;4960389;28;20413;-86
2021/10/24 07:38:41;;;;;;;2.93;2.00;;;;;;;;;;4957169;28;20424;-87
2021/10/24 07:41:09;;;;;;;4.53;2.00;;;;;;;;;;4954189;28;20412;-87
2021/10/24 07:43:36;;;;;;;5.32;1.98;;;;;;;;;;4949032;28;20410;-87
2021/10/24 07:46:03;;;;;;;3.17;1.80;;;;;;;;;;4954947;28;20433;-85
2021/10/24 07:48:30;;;;;;;2.63;1.80;;;;;;;;;;4955648;28;20428;-88
2021/10/24 07:50:57;;;;;;;3.03;1.75;;;;;;;;;;4964573;28;20407;-87
2021/10/24 07:53:26;;;;;;;4.18;1.95;;;;;;;;;;4951462;28;20412;-87
2021/10/24 07:55:53;;;;;;;2.90;1.98;;;;;;;;;;4955110;28;20419;-88
2021/10/24 07:58:21;;;;;;;3.03;1.90;;;;;;;;;;4949985;28;20447;-87
2021/10/24 08:00:49;;;;;;;3.63;2.10;;;;;;;;;;4947579;28;20416;-87
2021/10/24 08:03:16;;;;;;;3.33;2.07;;;;;;;;;;4958082;28;20441;-86
2021/10/24 08:05:43;;;;;;;3.33;2.00;;;;;;;;;;4954088;28;20908;-87
2021/10/24 08:08:10;;;;;;;3.28;2.15;;;;;;;;;;4954443;28;20419;-87
2021/10/24 08:10:38;;;;;;;3.55;2.25;;;;;;;;;;4953920;28;20416;-87
2021/10/24 08:13:05;;;;;;;3.92;2.45;;;;;;;;;;4957009;28;20411;-86
2021/10/24 08:15:34;;;;;;;5.65;2.50;;;;;;;;;;4953214;28;20415;-87
2021/10/24 08:18:01;;;;;;;4.45;2.50;;;;;;;;;;4948222;28;20419;-86
2021/10/24 08:20:28;;;;;;;3.10;2.20;;;;;;;;;;4950634;28;20405;-86
2021/10/24 08:22:54;;;;;;;3.90;2.35;;;;;;;;;;4955556;28;20412;-86
2021/10/24 08:25:23;;;;;;;3.30;2.40;;;;;;;;;;4957192;28;20495;-86
2021/10/24 08:27:50;;;;;;;3.13;2.38;;;;;;;;;;4956002;28;20420;-85
2021/10/24 08:30:17;;;;;;;3.85;2.25;;;;;;;;;;4948612;28;20836;-86
2021/10/24 08:32:46;;;;;;;3.17;1.93;;;;;;;;;;4955309;28;20448;-84
2021/10/24 08:35:13;;;;;;;3.72;2.15;;;;;;;;;;4951376;28;20469;-86
2021/10/24 08:37:40;;;;;;;3.87;2.23;;;;;;;;;;4957604;28;20433;-85
2021/10/24 08:40:09;;;;;;;4.13;1.98;;;;;;;;;;4950625;28;20426;-87
2021/10/24 08:42:40;;;;;;;2.97;1.90;;;;;;;;;;4958686;28;20814;-86
2021/10/24 08:45:10;;;;;;;3.57;2.00;;;;;;;;;;4949758;28;20491;-86
2021/10/24 08:47:38;;;;;;;3.80;2.08;;;;;;;;;;4959206;28;20432;-87
2021/10/24 08:50:07;;;;;;;3.95;1.90;;;;;;;;;;4950700;28;20434;-87
2021/10/24 08:52:38;;;;;;;3.67;2.38;;;;;;;;;;4955800;28;20412;-86
2021/10/24 08:55:06;;;;;;;3.20;2.03;;;;;;;;;;4958572;28;20486;-87
2021/10/24 08:57:33;;;;;;;4.30;1.80;;;;;;;;;;4955209;28;20433;-87
2021/10/24 09:00:01;;;;;;;3.90;2.00;;;;;;;;;;4953911;28;20901;-86
2021/10/24 09:02:57;;;;;;;2.65;1.83;;;;;;;;;;4954582;28;20415;-88
2021/10/24 09:05:32;;;;;;;2.55;1.63;;;;;;;;;;4951974;28;20422;-87
2021/10/24 09:08:00;;;;;;;3.38;1.88;;;;;;;;;;4950071;28;20404;-86
2021/10/24 09:10:35;;;;;;;3.17;1.70;;;;;;;;;;4942936;28;21154;-87
2021/10/24 09:13:04;;;;;;;2.88;1.92;;;;;;;;;;4949419;28;20428;-85
2021/10/24 09:15:47;;;;;;;3.45;1.88;;;;;;;;;;4943316;28;20417;-85
2021/10/24 09:18:16;;;;;;;4.10;2.10;;;;;;;;;;4947301;28;20793;-87
2021/10/24 09:20:45;;;;;;;3.22;2.25;;;;;;;;;;4942910;28;20427;-86
2021/10/24 09:23:15;;;;;;;4.32;1.90;;;;;;;;;;4945282;28;20422;-86
2021/10/24 09:25:51;;;;;;;3.70;1.90;;;;;;;;;;4958731;28;20407;-86
2021/10/24 09:28:20;;;;;;;3.53;2.20;;;;;;;;;;4954235;28;20412;-85
2021/10/24 09:30:48;;;;;;;3.80;1.85;;;;;;;;;;4956338;28;20477;-86
2021/10/24 09:33:17;;;;;;;3.65;2.00;;;;;;;;;;4954981;28;20412;-86
2021/10/24 09:35:47;;;;;;;3.30;1.60;;;;;;;;;;4957196;28;20421;-85
2021/10/24 09:38:16;;;;;;;4.53;1.80;;;;;;;;;;4949230;28;20534;-84
2021/10/24 09:40:46;;;;;;;3.60;2.10;;;;;;;;;;4951528;28;20418;-86
2021/10/24 09:43:17;;;;;;;2.25;1.73;;;;;;;;;;4953256;28;20452;-86
2021/10/24 09:45:46;;;;;;;2.22;1.60;;;;;;;;;;4953947;28;20418;-85
2021/10/24 09:48:15;;;;;;;2.97;1.90;;;;;;;;;;4949861;28;20408;-87
2021/10/24 09:50:46;;;;;;;2.78;2.00;;;;;;;;;;4952899;28;20858;-85
2021/10/24 09:53:17;;;;;;;2.33;1.97;;;;;;;;;;4951985;28;20485;-85
2021/10/24 09:55:47;;;;;;;3.47;2.13;;;;;;;;;;4945806;28;20444;-86
2021/10/24 09:58:14;;;;;;;3.80;2.20;;;;;;;;;;4945635;28;20412;-86
2021/10/24 10:00:43;;;;;;;3.15;2.10;;;;;;;;;;4948341;28;20467;-83
2021/10/24 10:03:09;;;;;;;2.83;1.95;;;;;;;;;;4952670;28;20416;-86
2021/10/24 10:05:37;;;;;;;5.90;2.10;;;;;;;;;;4946878;28;20479;-90
2021/10/24 10:08:06;;;;;;;5.10;2.40;;;;;;;;;;4953302;28;20886;-85
2021/10/24 10:10:38;;;;;;;2.75;2.05;;;;;;;;;;4945425;28;20436;-85
2021/10/24 10:13:09;;;;;;;2.70;2.10;;;;;;;;;;4950051;28;20797;-80
2021/10/24 10:15:40;;;;;;;3.47;2.13;;;;;;;;;;4951094;28;20438;-87
2021/10/24 10:18:07;;;;;;;3.28;1.92;;;;;;;;;;4953697;28;20405;-87
2021/10/24 10:20:35;;;;;;;4.25;2.47;;;;;;;;;;4956569;28;20413;-87
2021/10/24 10:23:07;;;;;;;3.60;2.10;;;;;;;;;;4955197;28;20404;-87
2021/10/24 10:25:37;;;;;;;3.38;2.03;;;;;;;;;;4951345;28;20415;-87
2021/10/24 10:28:06;;;;;;;2.70;2.08;;;;;;;;;;4954861;28;20403;-87
2021/10/24 10:30:38;;;;;;;2.40;1.93;;;;;;;;;;4951382;28;20435;-86
2021/10/24 10:33:26;;;;;;;2.72;2.17;;;;;;;;;;4953176;28;20465;-87
2021/10/24 10:35:54;;;;;;;3.25;2.05;;;;;;;;;;4949870;28;20408;-86
2021/10/24 10:38:32;;;;;;;2.90;2.22;;;;;;;;;;4954810;28;20412;-86
2021/10/24 10:41:00;;;;;;;4.18;2.20;;;;;;;;;;4954171;28;20506;-86
2021/10/24 10:43:27;;;;;;;3.60;2.10;;;;;;;;;;4951983;28;20443;-87
2021/10/24 10:45:56;;;;;;;3.15;2.20;;;;;;;;;;4952468;28;20414;-87
2021/10/24 10:48:31;;;;;;;4.93;2.17;;;;;;;;;;4953418;28;20421;-86
2021/10/24 10:51:01;;;;;;;4.75;2.50;;;;;;;;;;4955077;28;20434;-86
2021/10/24 10:53:51;;;;;;;4.00;2.42;;;;;;;;;;4954441;28;20770;-87
2021/10/24 10:56:22;;;;;;;5.00;2.38;;;;;;;;;;4949508;28;20423;-85
2021/10/24 10:58:51;;;;;;;3.67;2.20;;;;;;;;;;4954374;28;20665;-86
2021/10/24 11:01:21;;;;;;;4.43;2.38;;;;;;;;;;4951553;28;20498;-87
2021/10/24 11:03:49;;;;;;;3.22;2.53;;;;;;;;;;4958425;28;20420;-86
2021/10/24 11:06:50;;;;;;;4.75;2.33;;;;;;;;;;4955491;28;20410;-85
2021/10/24 11:09:48;;;;;;;2.70;2.40;;;;;;;;;;4957975;28;20863;-86
2021/10/24 11:12:46;;;;;;;4.35;2.22;;;;;;;;;;4864151;29;20788;-87
2021/10/24 11:15:27;;;;;;;4.27;1.93;;;;;;;;;;4930773;28;20426;-86
2021/10/24 11:17:54;;;;;;;2.83;2.00;;;;;;;;;;4954926;28;20430;-86
2021/10/24 11:20:43;;;;;;;3.10;2.05;;;;;;;;;;4959365;28;20410;-86
2021/10/24 11:23:16;;;;;;;3.70;2.20;;;;;;;;;;4958152;28;20434;-87
2021/10/24 11:25:43;;;;;;;3.90;2.00;;;;;;;;;;4951656;28;20408;-85
2021/10/24 11:28:17;;;;;;;2.97;2.00;;;;;;;;;;4959550;28;20895;-86
2021/10/24 11:30:46;;;;;;;3.42;1.92;;;;;;;;;;4951097;28;20434;-86
2021/10/24 11:33:14;;;;;;;3.53;2.10;;;;;;;;;;4952687;28;20507;-86
2021/10/24 11:35:42;;;;;;;2.65;2.10;;;;;;;;;;4957701;28;20420;-87
2021/10/24 11:38:14;;;;;;;3.85;2.30;;;;;;;;;;4958514;28;20511;-86
2021/10/24 11:40:44;;;;;;;3.90;2.13;;;;;;;;;;4958362;28;20725;-86
2021/10/24 11:43:15;;;;;;;3.08;2.00;;;;;;;;;;4956156;28;20423;-86
2021/10/24 11:45:44;;;;;;;3.92;1.95;;;;;;;;;;4956217;28;20406;-87
2021/10/24 11:48:18;;;;;;;3.53;2.03;;;;;;;;;;4955319;28;21259;-86
2021/10/24 11:51:00;;;;;;;4.55;2.30;;;;;;;;;;4950889;28;20505;-86
2021/10/24 11:53:31;;;;;;;3.95;2.20;;;;;;;;;;4955918;28;20410;-86
2021/10/24 11:56:01;;;;;;;3.72;2.05;;;;;;;;;;4957328;28;20417;-87
2021/10/24 11:58:43;;;;;;;2.60;1.90;;;;;;;;;;4953888;28;20419;-87
2021/10/24 12:01:12;;;;;;;3.85;1.60;;;;;;;;;;4955053;28;20780;-86
2021/10/24 12:03:44;;;;;;;2.40;1.83;;;;;;;;;;4955298;28;20410;-86
2021/10/24 12:06:12;;;;;;;2.85;1.75;;;;;;;;;;4956541;28;20473;-87
2021/10/24 12:08:50;;;;;;;4.28;2.00;;;;;;;;;;4953840;28;20505;-87
2021/10/24 12:11:40;;;;;;;3.20;1.70;;;;;;;;;;4957241;28;20442;-87
2021/10/24 12:14:08;;;;;;;2.70;1.65;;;;;;;;;;4951571;28;20415;-87
2021/10/24 12:16:40;;;;;;;2.35;1.75;;;;;;;;;;4955923;28;20410;-87
2021/10/24 12:19:17;;;;;;;3.75;1.83;;;;;;;;;;4956407;28;20409;-87
2021/10/24 12:22:07;;;;;;;1.90;1.70;;;;;;;;;;4950910;28;20424;-87
2021/10/24 12:24:43;;;;;;;2.28;1.60;;;;;;;;;;4953477;28;20428;-87
2021/10/24 12:27:17;;;;;;;2.05;1.70;;;;;;;;;;4956878;28;20411;-87
2021/10/24 12:29:57;;;;;;;2.13;1.50;;;;;;;;;;4950790;28;20436;-86
2021/10/24 12:32:25;;;;;;;3.30;1.52;;;;;;;;;;4951681;28;20411;-87
2021/10/24 12:35:03;;;;;;;1.90;1.70;;;;;;;;;;4955561;28;20414;-87
2021/10/24 12:37:30;;;;;;;2.47;1.60;;;;;;;;;;4956745;28;20415;-87
2021/10/24 12:40:21;;;;;;;2.20;1.63;;;;;;;;;;4953851;28;20793;-86
2021/10/24 12:43:10;;;;;;;2.47;1.50;;;;;;;;;;4950517;28;20419;-87
2021/10/24 12:45:52;;;;;;;2.85;1.63;;;;;;;;;;4948798;23;20528;-84
2021/10/24 12:48:20;;;;;;;4.50;1.60;;;;;;;;;;4923660;29;20432;-83
2021/10/24 12:50:48;;;;;;;4.07;1.70;;;;;;;;;;4923098;29;20452;-85
2021/10/24 12:53:18;;;;;;;3.80;2.70;;;;;;;;;;4927279;29;20507;-86
2021/10/24 12:56:03;;;;;;;2.08;1.60;;;;;;;;;;4922926;29;20422;-85
2021/10/24 12:58:30;;;;;;;3.37;1.60;;;;;;;;;;4924892;29;20899;-85
2021/10/24 13:00:59;;;;;;;2.60;1.70;;;;;;;;;;4926163;29;20421;-85
2021/10/24 13:03:26;;;;;;;1.50;1.40;;;;;;;;;;4926582;29;20410;-85
2021/10/24 13:05:53;;;;;;;2.70;1.40;;;;;;;;;;4923496;29;20822;-85
2021/10/24 13:08:19;;;;;;;2.85;1.38;;;;;;;;;;4927289;29;20638;-86
2021/10/24 13:10:46;;;;;;;2.15;1.52;;;;;;;;;;4927885;29;20783;-85
2021/10/24 13:13:13;;;;;;;2.00;1.35;;;;;;;;;;4925785;29;20495;-85
2021/10/24 13:15:44;;;;;;;1.80;1.40;;;;;;;;;;4925600;29;20422;-85
2021/10/24 13:18:14;;;;;;;1.60;1.27;;;;;;;;;;4926473;29;20414;-86
2021/10/24 13:20:44;;;;;;;2.30;1.50;;;;;;;;;;4926358;29;20417;-85
2021/10/24 13:23:10;;;;;;;3.38;1.40;;;;;;;;;;4926435;29;20425;-85
2021/10/24 13:25:37;;;;;;;3.00;1.30;;;;;;;;;;4926409;29;20414;-86
2021/10/24 13:28:05;;;;;;;3.28;1.45;;;;;;;;;;4926120;29;20413;-86
2021/10/24 13:30:33;;;;;;;1.57;1.03;;;;;;;;;;4926389;29;20707;-86
2021/10/24 13:33:00;;;;;;;2.35;1.20;;;;;;;;;;4926100;29;20909;-86
2021/10/24 13:35:29;;;;;;;2.88;1.30;;;;;;;;;;4926306;29;20921;-86
2021/10/24 13:37:55;;;;;;;3.45;1.30;;;;;;;;;;4925609;29;20421;-85
2021/10/24 13:40:23;;;;;;;3.58;1.35;;;;;;;;;;4926254;29;20421;-85
2021/10/24 13:42:49;;;;;;;1.97;1.30;;;;;;;;;;4926373;29;20692;-85
2021/10/24 13:45:17;;;;;;;1.80;1.30;;;;;;;;;;4924436;29;20456;-86
2021/10/24 13:47:45;;;;;;;2.22;1.30;;;;;;;;;;4926395;29;20476;-86
2021/10/24 13:50:12;;;;;;;2.38;1.33;;;;;;;;;;4925857;29;20437;-85
2021/10/24 13:52:40;;;;;;;3.17;1.30;;;;;;;;;;4926385;29;20958;-86
2021/10/24 13:55:08;;;;;;;1.90;1.30;;;;;;;;;;4926067;29;20685;-85
2021/10/24 13:57:35;;;;;;;1.80;1.33;;;;;;;;;;4926287;29;20886;-86
2021/10/24 14:00:03;;;;;;;2.05;1.27;;;;;;;;;;4925884;29;20429;-86
2021/10/24 14:02:30;;;;;;;2.78;1.30;;;;;;;;;;4924457;29;20428;-85
2021/10/24 14:04:57;;;;;;;1.95;1.20;;;;;;;;;;4925364;29;20471;-85
2021/10/24 14:07:25;;;;;;;2.90;1.47;;;;;;;;;;4923745;29;20421;-82
2021/10/24 14:09:53;;;;;;;2.70;1.30;;;;;;;;;;4918549;29;21013;-86
2021/10/24 14:12:20;;;;;;;2.35;1.20;;;;;;;;;;4916457;29;20410;-86
2021/10/24 14:14:48;;;;;;;2.40;1.10;;;;;;;;;;4919027;29;20480;-88
2021/10/24 14:17:15;;;;;;;1.52;1.10;;;;;;;;;;4916034;29;20418;-86
2021/10/24 14:19:41;;;;;;;2.08;1.20;;;;;;;;;;4919396;29;20422;-85
2021/10/24 14:22:09;;;;;;;2.03;1.20;;;;;;;;;;4914788;29;20539;-85
2021/10/24 14:24:35;;;;;;;1.90;1.23;;;;;;;;;;4913142;29;20411;-85
2021/10/24 14:27:04;;;;;;;1.55;1.25;;;;;;;;;;4916101;29;20432;-85
2021/10/24 14:29:37;;;;;;;2.78;1.35;;;;;;;;;;4916614;29;20904;-84
2021/10/24 14:32:06;;;;;;;1.60;1.15;;;;;;;;;;4921353;29;20497;-86
2021/10/24 14:34:33;;;;;;;2.85;1.38;;;;;;;;;;4921944;29;20410;-85
2021/10/24 14:36:59;;;;;;;2.42;1.35;;;;;;;;;;4919165;29;20471;-85
2021/10/24 14:39:26;;;;;;;2.60;1.33;;;;;;;;;;4919311;29;20408;-85
2021/10/24 14:41:54;;;;;;;2.05;1.35;;;;;;;;;;4918283;29;20894;-85
2021/10/24 14:44:22;;;;;;;2.72;1.10;;;;;;;;;;4917508;29;20426;-85
2021/10/24 14:46:49;;;;;;;2.17;1.30;;;;;;;;;;4918115;29;20414;-85
2021/10/24 14:49:16;;;;;;;2.22;1.30;;;;;;;;;;4918126;29;20401;-85
2021/10/24 14:51:43;;;;;;;2.67;1.30;;;;;;;;;;4922558;29;20433;-85
2021/10/24 14:54:10;;;;;;;2.47;1.60;;;;;;;;;;4928090;29;20430;-85